sensor_id;sensor_type;location;lat;lon;timestamp;pressure;altitude;pressure_sealevel;temperature;humidity
4085;BME280;2057;50.858;6.572;2024-01-11T00:02:16;101800.28;;;-6.08;100.00
4085;BME280;2057;50.858;6.572;2024-01-11T00:04:41;101803.22;;;-6.11;100.00
4085;BME280;2057;50.858;6.572;2024-01-11T00:07:09;101809.28;;;-6.09;100.00
4085;BME280;2057;50.858;6.572;2024-01-11T00:09:41;101813.34;;;-6.09;100.00
4085;BME280;2057;50.858;6.572;2024-01-11T00:12:07;101807.97;;;-6.12;100.00
4085;BME280;2057;50.858;6.572;2024-01-11T00:14:32;101813.97;;;-6.05;100.00
4085;BME280;2057;50.858;6.572;2024-01-11T00:16:58;101808.38;;;-6.09;100.00
4085;BME280;2057;50.858;6.572;2024-01-11T00:19:23;101812.41;;;-6.10;100.00
4085;BME280;2057;50.858;6.572;2024-01-11T00:21:49;101815.94;;;-6.02;100.00
4085;BME280;2057;50.858;6.572;2024-01-11T00:24:14;101815.56;;;-6.11;100.00
4085;BME280;2057;50.858;6.572;2024-01-11T00:26:40;101815.94;;;-6.26;100.00
4085;BME280;2057;50.858;6.572;2024-01-11T00:29:06;101824.38;;;-6.13;100.00
4085;BME280;2057;50.858;6.572;2024-01-11T00:31:37;101816.50;;;-6.10;100.00
4085;BME280;2057;50.858;6.572;2024-01-11T00:34:03;101823.72;;;-6.12;100.00
4085;BME280;2057;50.858;6.572;2024-01-11T00:36:29;101820.94;;;-6.08;100.00
4085;BME280;2057;50.858;6.572;2024-01-11T00:38:54;101822.06;;;-6.30;100.00
4085;BME280;2057;50.858;6.572;2024-01-11T00:41:30;101827.03;;;-6.36;100.00
4085;BME280;2057;50.858;6.572;2024-01-11T00:43:55;101828.84;;;-6.35;100.00
4085;BME280;2057;50.858;6.572;2024-01-11T00:46:21;101829.16;;;-6.44;100.00
4085;BME280;2057;50.858;6.572;2024-01-11T00:48:46;101834.22;;;-6.32;100.00
4085;BME280;2057;50.858;6.572;2024-01-11T00:51:15;101831.44;;;-6.46;100.00
4085;BME280;2057;50.858;6.572;2024-01-11T00:53:46;101828.47;;;-6.43;100.00
4085;BME280;2057;50.858;6.572;2024-01-11T00:56:20;101823.38;;;-6.51;100.00
4085;BME280;2057;50.858;6.572;2024-01-11T00:58:46;101822.22;;;-6.47;100.00
4085;BME280;2057;50.858;6.572;2024-01-11T01:01:12;101828.53;;;-6.49;100.00
4085;BME280;2057;50.858;6.572;2024-01-11T01:03:38;101830.56;;;-6.52;100.00
4085;BME280;2057;50.858;6.572;2024-01-11T01:06:04;101833.81;;;-6.40;100.00
4085;BME280;2057;50.858;6.572;2024-01-11T01:08:30;101831.66;;;-6.50;100.00
4085;BME280;2057;50.858;6.572;2024-01-11T01:10:55;101832.41;;;-6.33;100.00
4085;BME280;2057;50.858;6.572;2024-01-11T01:13:23;101829.91;;;-6.27;100.00
4085;BME280;2057;50.858;6.572;2024-01-11T01:15:49;101832.94;;;-6.41;100.00
4085;BME280;2057;50.858;6.572;2024-01-11T01:18:16;101832.03;;;-6.41;100.00
4085;BME280;2057;50.858;6.572;2024-01-11T01:20:42;101822.66;;;-6.50;100.00
4085;BME280;2057;50.858;6.572;2024-01-11T01:23:07;101832.50;;;-6.44;100.00
4085;BME280;2057;50.858;6.572;2024-01-11T01:25:32;101821.34;;;-6.53;100.00
4085;BME280;2057;50.858;6.572;2024-01-11T01:27:58;101826.53;;;-6.52;100.00
4085;BME280;2057;50.858;6.572;2024-01-11T01:30:26;101836.53;;;-6.39;100.00
4085;BME280;2057;50.858;6.572;2024-01-11T01:32:51;101840.16;;;-6.42;100.00
4085;BME280;2057;50.858;6.572;2024-01-11T01:35:16;101844.69;;;-6.51;100.00
4085;BME280;2057;50.858;6.572;2024-01-11T01:37:42;101837.75;;;-6.54;100.00
4085;BME280;2057;50.858;6.572;2024-01-11T01:40:08;101836.66;;;-6.56;100.00
4085;BME280;2057;50.858;6.572;2024-01-11T01:42:34;101841.66;;;-6.67;100.00
4085;BME280;2057;50.858;6.572;2024-01-11T01:44:59;101851.09;;;-6.65;100.00
4085;BME280;2057;50.858;6.572;2024-01-11T01:47:26;101845.50;;;-6.69;100.00
4085;BME280;2057;50.858;6.572;2024-01-11T01:49:53;101841.72;;;-6.73;100.00
4085;BME280;2057;50.858;6.572;2024-01-11T01:52:21;101851.50;;;-6.62;100.00
4085;BME280;2057;50.858;6.572;2024-01-11T01:54:51;101850.81;;;-6.60;100.00
4085;BME280;2057;50.858;6.572;2024-01-11T01:57:19;101858.00;;;-6.56;100.00
4085;BME280;2057;50.858;6.572;2024-01-11T01:59:45;101851.09;;;-6.65;100.00
4085;BME280;2057;50.858;6.572;2024-01-11T02:02:11;101850.22;;;-6.71;100.00
4085;BME280;2057;50.858;6.572;2024-01-11T02:04:37;101850.44;;;-6.69;100.00
4085;BME280;2057;50.858;6.572;2024-01-11T02:07:04;101854.84;;;-6.55;100.00
4085;BME280;2057;50.858;6.572;2024-01-11T02:09:32;101852.56;;;-6.54;100.00
4085;BME280;2057;50.858;6.572;2024-01-11T02:11:58;101856.25;;;-6.63;100.00
4085;BME280;2057;50.858;6.572;2024-01-11T02:14:25;101854.88;;;-6.61;100.00
4085;BME280;2057;50.858;6.572;2024-01-11T02:16:51;101857.34;;;-6.61;100.00
4085;BME280;2057;50.858;6.572;2024-01-11T02:19:19;101861.50;;;-6.49;100.00
4085;BME280;2057;50.858;6.572;2024-01-11T02:21:46;101860.34;;;-6.45;100.00
4085;BME280;2057;50.858;6.572;2024-01-11T02:24:13;101854.50;;;-6.40;100.00
4085;BME280;2057;50.858;6.572;2024-01-11T02:26:57;101862.59;;;-6.41;100.00
4085;BME280;2057;50.858;6.572;2024-01-11T02:29:24;101860.31;;;-6.39;100.00
4085;BME280;2057;50.858;6.572;2024-01-11T02:31:49;101858.00;;;-6.32;100.00
4085;BME280;2057;50.858;6.572;2024-01-11T02:34:15;101870.16;;;-6.34;100.00
4085;BME280;2057;50.858;6.572;2024-01-11T02:36:41;101863.22;;;-6.36;100.00
4085;BME280;2057;50.858;6.572;2024-01-11T02:39:06;101856.28;;;-6.39;100.00
4085;BME280;2057;50.858;6.572;2024-01-11T02:41:32;101859.44;;;-6.40;100.00
4085;BME280;2057;50.858;6.572;2024-01-11T02:44:06;101855.81;;;-6.36;100.00
4085;BME280;2057;50.858;6.572;2024-01-11T02:46:31;101861.78;;;-6.28;100.00
4085;BME280;2057;50.858;6.572;2024-01-11T02:48:57;101866.53;;;-6.30;100.00
4085;BME280;2057;50.858;6.572;2024-01-11T02:51:22;101863.03;;;-6.38;100.00
4085;BME280;2057;50.858;6.572;2024-01-11T02:53:47;101861.06;;;-6.46;100.00
4085;BME280;2057;50.858;6.572;2024-01-11T02:56:15;101851.50;;;-6.62;100.00
4085;BME280;2057;50.858;6.572;2024-01-11T02:58:40;101850.41;;;-6.64;100.00
4085;BME280;2057;50.858;6.572;2024-01-11T03:01:09;101838.50;;;-6.66;100.00
4085;BME280;2057;50.858;6.572;2024-01-11T03:03:36;101837.19;;;-6.70;100.00
4085;BME280;2057;50.858;6.572;2024-01-11T03:06:02;101840.34;;;-6.71;100.00
4085;BME280;2057;50.858;6.572;2024-01-11T03:08:28;101841.22;;;-6.65;100.00
4085;BME280;2057;50.858;6.572;2024-01-11T03:10:53;101829.53;;;-6.66;100.00
4085;BME280;2057;50.858;6.572;2024-01-11T03:13:22;101832.53;;;-6.74;100.00
4085;BME280;2057;50.858;6.572;2024-01-11T03:15:48;101838.28;;;-6.62;100.00
4085;BME280;2057;50.858;6.572;2024-01-11T03:18:13;101833.81;;;-6.65;100.00
4085;BME280;2057;50.858;6.572;2024-01-11T03:20:38;101835.00;;;-6.50;100.00
4085;BME280;2057;50.858;6.572;2024-01-11T03:23:03;101830.38;;;-6.59;100.00
4085;BME280;2057;50.858;6.572;2024-01-11T03:25:29;101825.94;;;-6.62;100.00
4085;BME280;2057;50.858;6.572;2024-01-11T03:27:55;101824.59;;;-6.66;100.00
4085;BME280;2057;50.858;6.572;2024-01-11T03:30:22;101828.19;;;-6.64;100.00
4085;BME280;2057;50.858;6.572;2024-01-11T03:32:48;101825.50;;;-6.65;100.00
4085;BME280;2057;50.858;6.572;2024-01-11T03:35:13;101814.91;;;-6.58;100.00
4085;BME280;2057;50.858;6.572;2024-01-11T03:37:43;101825.94;;;-6.62;100.00
4085;BME280;2057;50.858;6.572;2024-01-11T03:40:08;101813.56;;;-6.62;100.00
4085;BME280;2057;50.858;6.572;2024-01-11T03:42:34;101804.59;;;-6.62;100.00
4085;BME280;2057;50.858;6.572;2024-01-11T03:44:59;101791.31;;;-6.56;100.00
4085;BME280;2057;50.858;6.572;2024-01-11T03:47:27;101795.09;;;-6.53;100.00
4085;BME280;2057;50.858;6.572;2024-01-11T03:49:52;101796.88;;;-6.52;100.00
4085;BME280;2057;50.858;6.572;2024-01-11T03:52:18;101797.75;;;-6.51;100.00
4085;BME280;2057;50.858;6.572;2024-01-11T03:54:43;101806.72;;;-6.46;100.00
4085;BME280;2057;50.858;6.572;2024-01-11T03:57:08;101808.81;;;-6.31;100.00
4085;BME280;2057;50.858;6.572;2024-01-11T03:59:34;101811.28;;;-6.31;100.00
4085;BME280;2057;50.858;6.572;2024-01-11T04:02:00;101823.84;;;-6.29;100.00
4085;BME280;2057;50.858;6.572;2024-01-11T04:04:25;101822.00;;;-6.24;100.00
4085;BME280;2057;50.858;6.572;2024-01-11T04:06:51;101825.16;;;-6.25;100.00
4085;BME280;2057;50.858;6.572;2024-01-11T04:09:16;101826.84;;;-6.13;100.00
4085;BME280;2057;50.858;6.572;2024-01-11T04:11:42;101829.56;;;-6.17;100.00
4085;BME280;2057;50.858;6.572;2024-01-11T04:14:07;101832.88;;;-6.11;100.00
4085;BME280;2057;50.858;6.572;2024-01-11T04:16:32;101834.53;;;-6.17;100.00
4085;BME280;2057;50.858;6.572;2024-01-11T04:18:59;101825.06;;;-6.14;100.00
4085;BME280;2057;50.858;6.572;2024-01-11T04:21:26;101827.34;;;-6.16;100.00
4085;BME280;2057;50.858;6.572;2024-01-11T04:23:55;101819.28;;;-6.20;100.00
4085;BME280;2057;50.858;6.572;2024-01-11T04:26:21;101824.22;;;-6.20;100.00
4085;BME280;2057;50.858;6.572;2024-01-11T04:28:46;101834.13;;;-6.20;100.00
4085;BME280;2057;50.858;6.572;2024-01-11T04:31:13;101839.78;;;-6.27;100.00
4085;BME280;2057;50.858;6.572;2024-01-11T04:33:43;101842.94;;;-6.28;100.00
4085;BME280;2057;50.858;6.572;2024-01-11T04:36:09;101849.88;;;-6.25;100.00
4085;BME280;2057;50.858;6.572;2024-01-11T04:38:37;101846.72;;;-6.24;100.00
4085;BME280;2057;50.858;6.572;2024-01-11T04:41:08;101850.78;;;-6.25;100.00
4085;BME280;2057;50.858;6.572;2024-01-11T04:43:37;101851.91;;;-6.28;100.00
4085;BME280;2057;50.858;6.572;2024-01-11T04:46:02;101851.66;;;-6.24;100.00
4085;BME280;2057;50.858;6.572;2024-01-11T04:48:27;101851.41;;;-6.20;100.00
4085;BME280;2057;50.858;6.572;2024-01-11T04:50:53;101863.78;;;-6.20;100.00
4085;BME280;2057;50.858;6.572;2024-01-11T04:53:21;101857.69;;;-6.17;100.00
4085;BME280;2057;50.858;6.572;2024-01-11T04:55:46;101864.41;;;-6.16;100.00
4085;BME280;2057;50.858;6.572;2024-01-11T04:58:12;101871.53;;;-6.11;100.00
4085;BME280;2057;50.858;6.572;2024-01-11T05:00:37;101859.91;;;-6.18;100.00
4085;BME280;2057;50.858;6.572;2024-01-11T05:03:02;101872.03;;;-6.14;100.00
4085;BME280;2057;50.858;6.572;2024-01-11T05:05:28;101866.66;;;-6.17;100.00
4085;BME280;2057;50.858;6.572;2024-01-11T05:07:53;101868.44;;;-6.16;100.00
4085;BME280;2057;50.858;6.572;2024-01-11T05:10:21;101866.41;;;-6.13;100.00
4085;BME280;2057;50.858;6.572;2024-01-11T05:12:46;101874.50;;;-6.14;100.00
4085;BME280;2057;50.858;6.572;2024-01-11T05:15:11;101874.50;;;-6.14;100.00
4085;BME280;2057;50.858;6.572;2024-01-11T05:17:37;101880.78;;;-6.16;100.00
4085;BME280;2057;50.858;6.572;2024-01-11T05:20:02;101882.59;;;-6.15;100.00
4085;BME280;2057;50.858;6.572;2024-01-11T05:22:28;101882.16;;;-6.18;100.00
4085;BME280;2057;50.858;6.572;2024-01-11T05:24:53;101877.59;;;-6.09;100.00
4085;BME280;2057;50.858;6.572;2024-01-11T05:27:21;101894.66;;;-6.11;100.00
4085;BME280;2057;50.858;6.572;2024-01-11T05:29:46;101897.38;;;-6.09;100.00
4085;BME280;2057;50.858;6.572;2024-01-11T05:32:11;101891.94;;;-6.07;100.00
4085;BME280;2057;50.858;6.572;2024-01-11T05:34:39;101882.06;;;-6.07;100.00
4085;BME280;2057;50.858;6.572;2024-01-11T05:37:05;101885.22;;;-6.08;100.00
4085;BME280;2057;50.858;6.572;2024-01-11T05:39:30;101893.75;;;-6.06;100.00
4085;BME280;2057;50.858;6.572;2024-01-11T05:41:57;101893.75;;;-6.06;100.00
4085;BME280;2057;50.858;6.572;2024-01-11T05:44:23;101907.22;;;-6.04;100.00
4085;BME280;2057;50.858;6.572;2024-01-11T05:46:48;101900.13;;;-6.19;100.00
4085;BME280;2057;50.858;6.572;2024-01-11T05:49:13;101902.56;;;-6.13;100.00
4085;BME280;2057;50.858;6.572;2024-01-11T05:51:39;101902.78;;;-6.12;100.00
4085;BME280;2057;50.858;6.572;2024-01-11T05:54:04;101912.72;;;-6.18;100.00
4085;BME280;2057;50.858;6.572;2024-01-11T05:56:29;101916.06;;;-6.17;100.00
4085;BME280;2057;50.858;6.572;2024-01-11T05:58:55;101915.69;;;-6.20;100.00
4085;BME280;2057;50.858;6.572;2024-01-11T06:01:20;101917.63;;;-6.12;100.00
4085;BME280;2057;50.858;6.572;2024-01-11T06:03:46;101916.91;;;-6.11;100.00
4085;BME280;2057;50.858;6.572;2024-01-11T06:06:12;101916.50;;;-6.14;100.00
4085;BME280;2057;50.858;6.572;2024-01-11T06:08:37;101923.97;;;-6.20;100.00
4085;BME280;2057;50.858;6.572;2024-01-11T06:11:03;101920.81;;;-6.19;100.00
4085;BME280;2057;50.858;6.572;2024-01-11T06:13:29;101921.69;;;-6.18;100.00
4085;BME280;2057;50.858;6.572;2024-01-11T06:15:54;101916.31;;;-6.16;100.00
4085;BME280;2057;50.858;6.572;2024-01-11T06:18:20;101914.88;;;-6.08;100.00
4085;BME280;2057;50.858;6.572;2024-01-11T06:20:45;101918.03;;;-6.09;100.00
4085;BME280;2057;50.858;6.572;2024-01-11T06:23:10;101925.44;;;-6.09;100.00
4085;BME280;2057;50.858;6.572;2024-01-11T06:25:36;101927.06;;;-6.15;100.00
4085;BME280;2057;50.858;6.572;2024-01-11T06:28:03;101930.75;;;-6.24;100.00
4085;BME280;2057;50.858;6.572;2024-01-11T06:30:29;101941.56;;;-6.29;100.00
4085;BME280;2057;50.858;6.572;2024-01-11T06:32:54;101944.19;;;-6.17;100.00
4085;BME280;2057;50.858;6.572;2024-01-11T06:35:19;101940.16;;;-6.22;100.00
4085;BME280;2057;50.858;6.572;2024-01-11T06:37:44;101945.56;;;-6.24;100.00
4085;BME280;2057;50.858;6.572;2024-01-11T06:40:10;101953.66;;;-6.25;100.00
4085;BME280;2057;50.858;6.572;2024-01-11T06:42:35;101952.63;;;-6.39;100.00
4085;BME280;2057;50.858;6.572;2024-01-11T06:45:01;101956.63;;;-6.34;100.00
4085;BME280;2057;50.858;6.572;2024-01-11T06:47:26;101955.34;;;-6.43;100.00
4085;BME280;2057;50.858;6.572;2024-01-11T06:49:52;101941.22;;;-6.50;100.00
4085;BME280;2057;50.858;6.572;2024-01-11T06:52:19;101951.09;;;-6.44;100.00
4085;BME280;2057;50.858;6.572;2024-01-11T06:54:45;101947.47;;;-6.82;100.00
4085;BME280;2057;50.858;6.572;2024-01-11T06:57:10;101944.50;;;-6.68;100.00
4085;BME280;2057;50.858;6.572;2024-01-11T06:59:36;101961.91;;;-6.49;100.00
4085;BME280;2057;50.858;6.572;2024-01-11T07:02:01;101958.31;;;-6.51;100.00
4085;BME280;2057;50.858;6.572;2024-01-11T07:04:27;101961.56;;;-6.64;100.00
4085;BME280;2057;50.858;6.572;2024-01-11T07:06:53;101964.22;;;-6.62;100.00
4085;BME280;2057;50.858;6.572;2024-01-11T07:09:18;101965.63;;;-6.75;100.00
4085;BME280;2057;50.858;6.572;2024-01-11T07:11:43;101967.50;;;-6.91;100.00
4085;BME280;2057;50.858;6.572;2024-01-11T07:14:11;101964.06;;;-6.75;100.00
4085;BME280;2057;50.858;6.572;2024-01-11T07:16:37;101969.09;;;-6.98;100.00
4085;BME280;2057;50.858;6.572;2024-01-11T07:19:02;101955.00;;;-7.10;100.00
4085;BME280;2057;50.858;6.572;2024-01-11T07:21:27;101967.53;;;-6.97;100.00
4085;BME280;2057;50.858;6.572;2024-01-11T07:23:57;101955.88;;;-6.98;100.00
4085;BME280;2057;50.858;6.572;2024-01-11T07:26:23;101947.53;;;-6.93;100.00
4085;BME280;2057;50.858;6.572;2024-01-11T07:28:49;101948.19;;;-6.88;100.00
4085;BME280;2057;50.858;6.572;2024-01-11T07:31:14;101945.13;;;-7.04;100.00
4085;BME280;2057;50.858;6.572;2024-01-11T07:33:39;101946.00;;;-7.04;100.00
4085;BME280;2057;50.858;6.572;2024-01-11T07:36:05;101953.66;;;-7.08;100.00
4085;BME280;2057;50.858;6.572;2024-01-11T07:38:33;101948.72;;;-7.08;100.00
4085;BME280;2057;50.858;6.572;2024-01-11T07:41:06;101942.91;;;-7.14;100.00
4085;BME280;2057;50.858;6.572;2024-01-11T07:43:33;101943.16;;;-7.18;100.00
4085;BME280;2057;50.858;6.572;2024-01-11T07:46:01;101941.59;;;-7.23;100.00
4085;BME280;2057;50.858;6.572;2024-01-11T07:48:27;101937.47;;;-7.00;100.00
4085;BME280;2057;50.858;6.572;2024-01-11T07:50:52;101952.28;;;-7.06;100.00
4085;BME280;2057;50.858;6.572;2024-01-11T07:53:17;101961.69;;;-6.98;100.00
4085;BME280;2057;50.858;6.572;2024-01-11T07:55:43;101963.53;;;-7.02;100.00
4085;BME280;2057;50.858;6.572;2024-01-11T07:58:08;101969.34;;;-7.07;100.00
4085;BME280;2057;50.858;6.572;2024-01-11T08:00:34;101969.50;;;-6.89;100.00
4085;BME280;2057;50.858;6.572;2024-01-11T08:02:59;101976.41;;;-6.75;100.00
4085;BME280;2057;50.858;6.572;2024-01-11T08:05:25;101994.38;;;-6.76;100.00
4085;BME280;2057;50.858;6.572;2024-01-11T08:07:51;102004.03;;;-6.72;100.00
4085;BME280;2057;50.858;6.572;2024-01-11T08:10:21;102008.00;;;-6.61;100.00
4085;BME280;2057;50.858;6.572;2024-01-11T08:12:47;102014.00;;;-6.53;100.00
4085;BME280;2057;50.858;6.572;2024-01-11T08:15:12;102020.75;;;-6.52;100.00
4085;BME280;2057;50.858;6.572;2024-01-11T08:17:38;102018.50;;;-6.51;100.00
4085;BME280;2057;50.858;6.572;2024-01-11T08:20:05;102016.25;;;-6.49;100.00
4085;BME280;2057;50.858;6.572;2024-01-11T08:22:33;102016.25;;;-6.49;100.00
4085;BME280;2057;50.858;6.572;2024-01-11T08:25:01;102019.34;;;-6.39;100.00
4085;BME280;2057;50.858;6.572;2024-01-11T08:27:27;102009.00;;;-6.36;100.00
4085;BME280;2057;50.858;6.572;2024-01-11T08:29:52;102002.22;;;-6.32;100.00
4085;BME280;2057;50.858;6.572;2024-01-11T08:32:17;101993.69;;;-6.34;100.00
4085;BME280;2057;50.858;6.572;2024-01-11T08:34:43;101997.03;;;-6.27;100.00
4085;BME280;2057;50.858;6.572;2024-01-11T08:37:09;101995.00;;;-6.24;100.00
4085;BME280;2057;50.858;6.572;2024-01-11T08:39:34;101994.34;;;-6.29;100.00
4085;BME280;2057;50.858;6.572;2024-01-11T08:42:02;101981.53;;;-6.32;100.00
4085;BME280;2057;50.858;6.572;2024-01-11T08:44:29;101992.28;;;-6.20;100.00
4085;BME280;2057;50.858;6.572;2024-01-11T08:46:56;101986.06;;;-6.29;100.00
4085;BME280;2057;50.858;6.572;2024-01-11T08:49:22;101995.88;;;-6.24;100.00
4085;BME280;2057;50.858;6.572;2024-01-11T08:51:48;101990.00;;;-6.19;100.00
4085;BME280;2057;50.858;6.572;2024-01-11T08:54:13;101986.41;;;-6.15;100.00
4085;BME280;2057;50.858;6.572;2024-01-11T08:56:41;101991.34;;;-6.15;100.00
4085;BME280;2057;50.858;6.572;2024-01-11T08:59:07;101984.81;;;-6.15;100.00
4085;BME280;2057;50.858;6.572;2024-01-11T09:01:34;101990.81;;;-6.07;100.00
4085;BME280;2057;50.858;6.572;2024-01-11T09:04:01;101997.91;;;-5.97;100.00
4085;BME280;2057;50.858;6.572;2024-01-11T09:06:29;101997.88;;;-5.91;100.00
4085;BME280;2057;50.858;6.572;2024-01-11T09:08:54;102006.97;;;-6.03;100.00
4085;BME280;2057;50.858;6.572;2024-01-11T09:11:19;101991.78;;;-6.12;100.00
4085;BME280;2057;50.858;6.572;2024-01-11T09:13:47;101990.88;;;-5.88;100.00
4085;BME280;2057;50.858;6.572;2024-01-11T09:16:16;101997.34;;;-5.83;100.00
4085;BME280;2057;50.858;6.572;2024-01-11T09:18:43;101982.50;;;-5.83;100.00
4085;BME280;2057;50.858;6.572;2024-01-11T09:21:08;101991.69;;;-5.76;100.00
4085;BME280;2057;50.858;6.572;2024-01-11T09:23:34;101984.50;;;-5.80;100.00
4085;BME280;2057;50.858;6.572;2024-01-11T09:26:00;101993.94;;;-5.78;100.00
4085;BME280;2057;50.858;6.572;2024-01-11T09:28:27;102001.25;;;-5.67;100.00
4085;BME280;2057;50.858;6.572;2024-01-11T09:30:53;102019.00;;;-5.63;100.00
4085;BME280;2057;50.858;6.572;2024-01-11T09:33:21;102024.16;;;-5.62;100.00
4085;BME280;2057;50.858;6.572;2024-01-11T09:35:47;102016.69;;;-5.56;100.00
4085;BME280;2057;50.858;6.572;2024-01-11T09:38:12;102023.28;;;-5.62;100.00
4085;BME280;2057;50.858;6.572;2024-01-11T09:40:38;102029.31;;;-5.36;100.00
4085;BME280;2057;50.858;6.572;2024-01-11T09:43:03;102024.41;;;-5.42;100.00
4085;BME280;2057;50.858;6.572;2024-01-11T09:45:32;102017.84;;;-5.36;100.00
4085;BME280;2057;50.858;6.572;2024-01-11T09:47:58;102022.47;;;-5.26;100.00
4085;BME280;2057;50.858;6.572;2024-01-11T09:50:24;102024.75;;;-5.27;100.00
4085;BME280;2057;50.858;6.572;2024-01-11T09:52:50;102026.84;;;-5.12;100.00
4085;BME280;2057;50.858;6.572;2024-01-11T09:55:18;102024.50;;;-5.05;100.00
4085;BME280;2057;50.858;6.572;2024-01-11T09:57:47;102035.94;;;-4.99;100.00
4085;BME280;2057;50.858;6.572;2024-01-11T10:00:16;102040.19;;;-4.98;100.00
4085;BME280;2057;50.858;6.572;2024-01-11T10:02:41;102037.72;;;-4.98;100.00
4085;BME280;2057;50.858;6.572;2024-01-11T10:05:07;102041.94;;;-4.92;100.00
4085;BME280;2057;50.858;6.572;2024-01-11T10:07:34;102036.47;;;-4.89;100.00
4085;BME280;2057;50.858;6.572;2024-01-11T10:09:59;102038.69;;;-4.85;100.00
4085;BME280;2057;50.858;6.572;2024-01-11T10:12:25;102052.25;;;-4.89;100.00
4085;BME280;2057;50.858;6.572;2024-01-11T10:14:51;102042.63;;;-4.74;100.00
4085;BME280;2057;50.858;6.572;2024-01-11T10:17:17;102046.56;;;-4.82;100.00
4085;BME280;2057;50.858;6.572;2024-01-11T10:19:43;102035.94;;;-4.81;100.00
4085;BME280;2057;50.858;6.572;2024-01-11T10:22:11;102030.97;;;-4.81;100.00
4085;BME280;2057;50.858;6.572;2024-01-11T10:24:41;102031.47;;;-4.83;100.00
4085;BME280;2057;50.858;6.572;2024-01-11T10:27:08;102026.03;;;-4.81;100.00
4085;BME280;2057;50.858;6.572;2024-01-11T10:29:35;102023.28;;;-4.77;100.00
4085;BME280;2057;50.858;6.572;2024-01-11T10:32:03;102025.91;;;-4.69;100.00
4085;BME280;2057;50.858;6.572;2024-01-11T10:34:31;102020.00;;;-4.64;100.00
4085;BME280;2057;50.858;6.572;2024-01-11T10:36:56;102037.75;;;-4.61;100.00
4085;BME280;2057;50.858;6.572;2024-01-11T10:39:24;102026.09;;;-4.49;100.00
4085;BME280;2057;50.858;6.572;2024-01-11T10:42:06;102023.84;;;-4.48;100.00
4085;BME280;2057;50.858;6.572;2024-01-11T10:44:34;102013.94;;;-4.48;100.00
4085;BME280;2057;50.858;6.572;2024-01-11T10:47:04;102015.63;;;-4.41;100.00
4085;BME280;2057;50.858;6.572;2024-01-11T10:49:32;102016.47;;;-4.35;100.00
4085;BME280;2057;50.858;6.572;2024-01-11T10:51:59;102023.09;;;-4.28;100.00
4085;BME280;2057;50.858;6.572;2024-01-11T10:54:26;102019.44;;;-4.25;100.00
4085;BME280;2057;50.858;6.572;2024-01-11T10:56:53;102031.38;;;-4.22;100.00
4085;BME280;2057;50.858;6.572;2024-01-11T10:59:21;102027.66;;;-4.13;100.00
4085;BME280;2057;50.858;6.572;2024-01-11T11:01:52;102032.00;;;-4.17;100.00
4085;BME280;2057;50.858;6.572;2024-01-11T11:04:20;102033.56;;;-4.18;100.00
4085;BME280;2057;50.858;6.572;2024-01-11T11:06:52;102033.28;;;-4.14;100.00
4085;BME280;2057;50.858;6.572;2024-01-11T11:09:23;102031.84;;;-3.93;100.00
4085;BME280;2057;50.858;6.572;2024-01-11T11:11:49;102033.94;;;-3.96;100.00
4085;BME280;2057;50.858;6.572;2024-01-11T11:14:15;102038.59;;;-3.92;100.00
4085;BME280;2057;50.858;6.572;2024-01-11T11:16:41;102033.13;;;-3.89;100.00
4085;BME280;2057;50.858;6.572;2024-01-11T11:19:07;102035.41;;;-3.91;100.00
4085;BME280;2057;50.858;6.572;2024-01-11T11:21:32;102044.66;;;-3.90;100.00
4085;BME280;2057;50.858;6.572;2024-01-11T11:23:58;102044.06;;;-3.82;100.00
4085;BME280;2057;50.858;6.572;2024-01-11T11:26:26;102054.72;;;-3.70;100.00
4085;BME280;2057;50.858;6.572;2024-01-11T11:28:53;102072.09;;;-3.70;100.00
4085;BME280;2057;50.858;6.572;2024-01-11T11:34:06;102056.34;;;-3.57;100.00
4085;BME280;2057;50.858;6.572;2024-01-11T11:36:33;102053.34;;;-3.55;100.00
4085;BME280;2057;50.858;6.572;2024-01-11T11:39:01;102053.34;;;-3.68;100.00
4085;BME280;2057;50.858;6.572;2024-01-11T11:41:27;102053.72;;;-3.78;100.00
4085;BME280;2057;50.858;6.572;2024-01-11T11:43:53;102060.47;;;-3.64;100.00
4085;BME280;2057;50.858;6.572;2024-01-11T11:46:19;102053.16;;;-3.56;100.00
4085;BME280;2057;50.858;6.572;2024-01-11T11:48:49;102051.88;;;-3.47;100.00
4085;BME280;2057;50.858;6.572;2024-01-11T11:51:17;102052.06;;;-3.45;100.00
4085;BME280;2057;50.858;6.572;2024-01-11T11:53:45;102049.69;;;-3.38;100.00
4085;BME280;2057;50.858;6.572;2024-01-11T11:56:11;102047.22;;;-3.38;100.00
4085;BME280;2057;50.858;6.572;2024-01-11T11:58:39;102040.16;;;-3.35;100.00
4085;BME280;2057;50.858;6.572;2024-01-11T12:01:04;102034.09;;;-3.24;100.00
4085;BME280;2057;50.858;6.572;2024-01-11T12:03:32;102034.97;;;-3.24;100.00
4085;BME280;2057;50.858;6.572;2024-01-11T12:05:59;102042.56;;;-3.17;100.00
4085;BME280;2057;50.858;6.572;2024-01-11T12:08:24;102039.47;;;-3.08;100.00
4085;BME280;2057;50.858;6.572;2024-01-11T12:10:53;102040.25;;;-3.15;100.00
4085;BME280;2057;50.858;6.572;2024-01-11T12:13:19;102029.41;;;-3.16;100.00
4085;BME280;2057;50.858;6.572;2024-01-11T12:15:44;102033.59;;;-3.22;100.00
4085;BME280;2057;50.858;6.572;2024-01-11T12:18:10;102032.00;;;-3.08;100.00
4085;BME280;2057;50.858;6.572;2024-01-11T12:20:35;102028.69;;;-3.02;100.00
4085;BME280;2057;50.858;6.572;2024-01-11T12:23:01;102040.50;;;-2.93;100.00
4085;BME280;2057;50.858;6.572;2024-01-11T12:25:27;102038.94;;;-2.93;100.00
4085;BME280;2057;50.858;6.572;2024-01-11T12:27:53;102041.91;;;-2.82;100.00
4085;BME280;2057;50.858;6.572;2024-01-11T12:30:18;102040.59;;;-2.73;100.00
4085;BME280;2057;50.858;6.572;2024-01-11T12:32:44;102041.66;;;-2.71;100.00
4085;BME280;2057;50.858;6.572;2024-01-11T12:35:10;102044.38;;;-2.70;100.00
4085;BME280;2057;50.858;6.572;2024-01-11T12:37:36;102037.84;;;-2.62;100.00
4085;BME280;2057;50.858;6.572;2024-01-11T12:40:04;102026.78;;;-2.51;100.00
4085;BME280;2057;50.858;6.572;2024-01-11T12:42:34;102024.88;;;-2.46;100.00
4085;BME280;2057;50.858;6.572;2024-01-11T12:45:00;102029.53;;;-2.42;100.00
4085;BME280;2057;50.858;6.572;2024-01-11T12:47:27;102017.91;;;-2.49;100.00
4085;BME280;2057;50.858;6.572;2024-01-11T12:49:53;102023.59;;;-2.50;100.00
4085;BME280;2057;50.858;6.572;2024-01-11T12:52:18;102010.22;;;-2.38;100.00
4085;BME280;2057;50.858;6.572;2024-01-11T12:54:52;102002.19;;;-2.22;100.00
4085;BME280;2057;50.858;6.572;2024-01-11T12:57:23;101994.66;;;-2.09;100.00
4085;BME280;2057;50.858;6.572;2024-01-11T12:59:48;101986.63;;;-2.14;100.00